Time,TemperatureF,DewpointF,PressureIn,WindDirection,WindDirectionDegrees,WindSpeedMPH,WindSpeedGustMPH,Humidity,HourlyPrecipIn,Conditions,Clouds,dailyrainin,SoftwareType,DateUTC
2013-08-11 00:03:00,84.1,77.6,30.04,SSE,153,10.0,10.0,81,0.00,,,0.00,Wunderground v.1.15,2013-08-11 05:03:00,
2013-08-11 00:08:00,84.1,77.6,30.04,SE,141,8.0,10.0,81,0.00,,,0.00,Wunderground v.1.15,2013-08-11 05:08:00,
2013-08-11 00:14:00,84.2,77.7,30.04,SSE,159,10.0,10.0,81,0.00,,,0.00,Wunderground v.1.15,2013-08-11 05:14:00,
2013-08-11 00:20:00,84.2,77.0,30.05,SSE,167,11.0,11.0,79,0.00,,,0.00,Wunderground v.1.15,2013-08-11 05:20:00,
2013-08-11 00:26:00,84.3,77.1,30.05,SE,145,6.0,11.0,79,0.00,,,0.00,Wunderground v.1.15,2013-08-11 05:26:00,
2013-08-11 00:32:00,84.4,78.3,30.05,ESE,122,9.0,9.0,82,0.00,,,0.00,Wunderground v.1.15,2013-08-11 05:32:00,
2013-08-11 00:37:00,84.3,78.2,30.05,SSE,148,7.0,9.0,82,0.00,,,0.00,Wunderground v.1.15,2013-08-11 05:37:00,
2013-08-11 00:43:00,84.2,78.5,30.05,SSE,158,9.0,9.0,83,0.00,,,0.00,Wunderground v.1.15,2013-08-11 05:43:00,
2013-08-11 00:49:00,84.3,78.2,30.05,SE,142,7.0,10.0,82,0.00,,,0.00,Wunderground v.1.15,2013-08-11 05:49:00,
2013-08-11 00:55:00,84.3,78.6,30.05,SSE,166,5.0,6.0,83,0.00,,,0.00,Wunderground v.1.15,2013-08-11 05:55:00,
2013-08-11 01:01:00,84.3,78.6,30.05,South,172,6.0,6.0,83,0.00,,,0.00,Wunderground v.1.15,2013-08-11 06:01:00,
2013-08-11 01:09:00,84.3,77.1,30.05,South,174,8.0,12.0,79,0.00,,,0.00,Wunderground v.1.15,2013-08-11 06:09:00,
2013-08-11 01:14:00,84.4,76.8,30.05,SSE,160,6.0,8.0,78,0.00,,,0.00,Wunderground v.1.15,2013-08-11 06:14:00,
2013-08-11 01:20:00,84.5,76.9,30.05,South,178,8.0,8.0,78,0.00,,,0.00,Wunderground v.1.15,2013-08-11 06:20:00,
2013-08-11 01:27:00,84.5,77.3,30.05,South,173,9.0,9.0,79,0.00,,,0.00,Wunderground v.1.15,2013-08-11 06:27:00,
2013-08-11 01:33:00,84.4,76.8,30.05,SSE,166,7.0,9.0,78,0.00,,,0.00,Wunderground v.1.15,2013-08-11 06:33:00,
2013-08-11 01:39:00,84.4,77.2,30.05,SSE,159,6.0,9.0,79,0.00,,,0.00,Wunderground v.1.15,2013-08-11 06:39:00,
2013-08-11 01:45:00,84.3,76.7,30.04,ESE,114,5.0,10.0,78,0.00,,,0.00,Wunderground v.1.15,2013-08-11 06:45:00,
2013-08-11 01:51:00,84.3,76.7,30.04,SSE,160,8.0,8.0,78,0.00,,,0.00,Wunderground v.1.15,2013-08-11 06:51:00,
2013-08-11 01:57:00,84.3,77.1,30.04,South,186,4.0,10.0,79,0.00,,,0.00,Wunderground v.1.15,2013-08-11 06:57:00,
2013-08-11 02:02:00,84.3,77.5,30.04,SE,142,6.0,8.0,80,0.00,,,0.00,Wunderground v.1.15,2013-08-11 07:02:00,
2013-08-11 02:07:00,84.3,77.5,30.04,SSE,154,7.0,10.0,80,0.00,,,0.00,Wunderground v.1.15,2013-08-11 07:07:00,
2013-08-11 02:12:00,84.3,77.5,30.04,SSE,158,8.0,9.0,80,0.00,,,0.00,Wunderground v.1.15,2013-08-11 07:12:00,
2013-08-11 02:17:00,84.3,76.7,30.05,SSE,160,5.0,13.0,78,0.00,,,0.00,Wunderground v.1.15,2013-08-11 07:17:00,
2013-08-11 02:22:00,84.3,77.1,30.04,SE,145,7.0,9.0,79,0.00,,,0.00,Wunderground v.1.15,2013-08-11 07:22:00,
2013-08-11 02:27:00,84.2,76.6,30.04,South,174,6.0,9.0,78,0.00,,,0.00,Wunderground v.1.15,2013-08-11 07:27:00,
2013-08-11 02:33:00,84.1,76.9,30.04,SSE,160,5.0,10.0,79,0.00,,,0.00,Wunderground v.1.15,2013-08-11 07:33:00,
2013-08-11 02:38:00,84.1,76.9,30.04,SE,138,5.0,10.0,79,0.00,,,0.00,Wunderground v.1.15,2013-08-11 07:38:00,
2013-08-11 02:43:00,84.1,76.5,30.04,SSE,164,8.0,11.0,78,0.00,,,0.00,Wunderground v.1.15,2013-08-11 07:43:00,
2013-08-11 02:48:00,84.1,76.9,30.04,SSE,148,7.0,11.0,79,0.00,,,0.00,Wunderground v.1.15,2013-08-11 07:48:00,
2013-08-11 02:53:00,84.1,76.9,30.04,SE,131,4.0,7.0,79,0.00,,,0.00,Wunderground v.1.15,2013-08-11 07:53:00,
2013-08-11 02:58:00,84.1,76.5,30.04,SSE,150,7.0,11.0,78,0.00,,,0.00,Wunderground v.1.15,2013-08-11 07:58:00,
2013-08-11 03:03:00,84.1,76.9,30.04,SE,141,3.0,7.0,79,0.00,,,0.00,Wunderground v.1.15,2013-08-11 08:03:00,
2013-08-11 03:09:00,84.0,76.8,30.04,SE,126,3.0,8.0,79,0.00,,,0.00,Wunderground v.1.15,2013-08-11 08:09:00,
2013-08-11 03:14:00,84.0,76.8,30.04,SE,145,3.0,5.0,79,0.00,,,0.00,Wunderground v.1.15,2013-08-11 08:14:00,
2013-08-11 03:20:00,83.9,76.7,30.05,SE,129,6.0,6.0,79,0.00,,,0.00,Wunderground v.1.15,2013-08-11 08:20:00,
2013-08-11 03:25:00,83.9,76.3,30.04,SE,141,8.0,8.0,78,0.00,,,0.00,Wunderground v.1.15,2013-08-11 08:25:00,
2013-08-11 03:30:00,84.0,76.8,30.05,SE,136,4.0,4.0,79,0.00,,,0.00,Wunderground v.1.15,2013-08-11 08:30:00,
2013-08-11 03:35:00,84.0,76.8,30.05,ESE,120,4.0,8.0,79,0.00,,,0.00,Wunderground v.1.15,2013-08-11 08:35:00,
2013-08-11 03:41:00,83.9,76.7,30.05,South,169,5.0,6.0,79,0.00,,,0.00,Wunderground v.1.15,2013-08-11 08:41:00,
2013-08-11 03:46:00,83.6,77.5,30.04,East,99,2.0,14.0,82,0.00,,,0.01,Wunderground v.1.15,2013-08-11 08:46:00,
2013-08-11 03:51:00,82.5,77.5,30.04,SSE,162,2.0,4.0,85,0.00,,,0.01,Wunderground v.1.15,2013-08-11 08:51:00,
2013-08-11 03:56:00,82.6,77.6,30.04,SSE,150,5.0,8.0,85,0.08,,,0.02,Wunderground v.1.15,2013-08-11 08:56:00,
2013-08-11 04:01:00,82.8,77.1,30.04,SSE,156,4.0,7.0,83,0.06,,,0.02,Wunderground v.1.15,2013-08-11 09:01:00,
2013-08-11 04:06:00,82.9,76.8,30.04,SE,138,6.0,9.0,82,0.04,,,0.02,Wunderground v.1.15,2013-08-11 09:06:00,
2013-08-11 04:11:00,83.2,77.1,30.04,SE,146,5.0,8.0,82,0.00,,,0.02,Wunderground v.1.15,2013-08-11 09:11:00,
2013-08-11 04:17:00,83.3,76.9,30.05,SE,136,8.0,8.0,81,0.00,,,0.02,Wunderground v.1.15,2013-08-11 09:17:00,
2013-08-11 04:22:00,83.5,76.7,30.04,SSE,148,5.0,9.0,80,0.00,,,0.02,Wunderground v.1.15,2013-08-11 09:22:00,
2013-08-11 04:27:00,83.6,77.5,30.05,SSE,152,8.0,9.0,82,0.00,,,0.02,Wunderground v.1.15,2013-08-11 09:27:00,
2013-08-11 04:32:00,83.6,77.5,30.05,ESE,122,3.0,9.0,82,0.00,,,0.02,Wunderground v.1.15,2013-08-11 09:32:00,
2013-08-11 04:37:00,83.5,77.4,30.05,SSE,162,11.0,11.0,82,0.00,,,0.02,Wunderground v.1.15,2013-08-11 09:37:00,
2013-08-11 04:43:00,83.5,77.1,30.05,South,179,5.0,10.0,81,0.00,,,0.02,Wunderground v.1.15,2013-08-11 09:43:00,
2013-08-11 04:48:00,83.5,75.9,30.05,SSE,153,7.0,10.0,78,0.00,,,0.02,Wunderground v.1.15,2013-08-11 09:48:00,
2013-08-11 04:54:00,83.7,76.9,30.05,SSE,167,7.0,9.0,80,0.00,,,0.02,Wunderground v.1.15,2013-08-11 09:54:00,
2013-08-11 04:59:00,83.7,77.2,30.05,South,183,8.0,9.0,81,0.00,,,0.02,Wunderground v.1.15,2013-08-11 09:59:00,
2013-08-11 05:04:00,83.6,77.1,30.05,SE,129,6.0,8.0,81,0.00,,,0.02,Wunderground v.1.15,2013-08-11 10:04:00,
2013-08-11 05:09:00,83.5,77.1,30.05,SSE,155,7.0,10.0,81,0.00,,,0.02,Wunderground v.1.15,2013-08-11 10:09:00,
2013-08-11 05:14:00,83.4,77.0,30.05,SSE,167,4.0,8.0,81,0.00,,,0.02,Wunderground v.1.15,2013-08-11 10:14:00,
2013-08-11 05:20:00,83.4,77.0,30.05,SSE,165,4.0,4.0,81,0.00,,,0.02,Wunderground v.1.15,2013-08-11 10:20:00,
2013-08-11 05:25:00,83.4,77.0,30.06,SSE,148,6.0,8.0,81,0.00,,,0.02,Wunderground v.1.15,2013-08-11 10:25:00,
2013-08-11 05:30:00,83.4,76.6,30.06,SSE,155,6.0,6.0,80,0.00,,,0.02,Wunderground v.1.15,2013-08-11 10:30:00,
2013-08-11 05:35:00,83.5,76.7,30.06,SSE,152,3.0,7.0,80,0.00,,,0.02,Wunderground v.1.15,2013-08-11 10:35:00,
2013-08-11 05:41:00,83.4,76.6,30.06,SE,136,6.0,8.0,80,0.00,,,0.02,Wunderground v.1.15,2013-08-11 10:41:00,
2013-08-11 05:46:00,83.6,76.4,30.06,SSE,165,7.0,8.0,79,0.00,,,0.02,Wunderground v.1.15,2013-08-11 10:46:00,
2013-08-11 05:51:00,83.6,76.8,30.05,SE,141,6.0,8.0,80,0.00,,,0.02,Wunderground v.1.15,2013-08-11 10:51:00,
2013-08-11 05:56:00,83.5,76.7,30.06,SSE,162,7.0,8.0,80,0.00,,,0.02,Wunderground v.1.15,2013-08-11 10:56:00,
2013-08-11 06:01:00,83.5,76.7,30.06,SE,146,5.0,8.0,80,0.00,,,0.02,Wunderground v.1.15,2013-08-11 11:01:00,
2013-08-11 06:07:00,83.4,77.3,30.06,SSE,158,7.0,8.0,82,0.00,,,0.02,Wunderground v.1.15,2013-08-11 11:07:00,
2013-08-11 06:12:00,83.4,77.3,30.06,SE,134,1.0,5.0,82,0.00,,,0.02,Wunderground v.1.15,2013-08-11 11:12:00,
2013-08-11 06:17:00,83.3,77.2,30.06,SE,138,1.0,6.0,82,0.00,,,0.02,Wunderground v.1.15,2013-08-11 11:17:00,
2013-08-11 06:22:00,83.2,76.8,30.06,SSW,194,5.0,5.0,81,0.00,,,0.02,Wunderground v.1.15,2013-08-11 11:22:00,
2013-08-11 06:27:00,83.4,77.0,30.06,SSE,150,5.0,7.0,81,0.00,,,0.02,Wunderground v.1.15,2013-08-11 11:27:00,
2013-08-11 06:33:00,83.4,77.0,30.07,SSE,150,6.0,6.0,81,0.00,,,0.02,Wunderground v.1.15,2013-08-11 11:33:00,
2013-08-11 06:38:00,83.5,77.1,30.07,SSE,160,6.0,7.0,81,0.00,,,0.02,Wunderground v.1.15,2013-08-11 11:38:00,
2013-08-11 06:43:00,83.7,78.0,30.07,SE,141,6.0,10.0,83,0.00,,,0.02,Wunderground v.1.15,2013-08-11 11:43:00,
2013-08-11 06:48:00,83.6,77.5,30.07,SE,146,5.0,10.0,82,0.00,,,0.02,Wunderground v.1.15,2013-08-11 11:48:00,
2013-08-11 06:54:00,83.6,76.0,30.07,ESE,110,7.0,9.0,78,0.00,,,0.02,Wunderground v.1.15,2013-08-11 11:54:00,
2013-08-11 07:00:00,83.4,75.4,30.08,East,98,6.0,9.0,77,0.00,,,0.02,Wunderground v.1.15,2013-08-11 12:00:00,
2013-08-11 07:05:00,83.6,76.8,30.08,SE,127,3.0,7.0,80,0.00,,,0.02,Wunderground v.1.15,2013-08-11 12:05:00,
2013-08-11 07:10:00,84.1,76.9,30.08,SE,143,4.0,4.0,79,0.00,,,0.02,Wunderground v.1.15,2013-08-11 12:10:00,
2013-08-11 07:15:00,84.8,77.2,30.08,SSE,150,5.0,6.0,78,0.00,,,0.02,Wunderground v.1.15,2013-08-11 12:15:00,
2013-08-11 07:20:00,85.3,78.0,30.08,SSE,154,4.0,4.0,79,0.00,,,0.02,Wunderground v.1.15,2013-08-11 12:20:00,
2013-08-11 07:26:00,85.5,77.9,30.08,SSE,150,2.0,4.0,78,0.00,,,0.02,Wunderground v.1.15,2013-08-11 12:26:00,
2013-08-11 07:31:00,85.7,78.0,30.09,SSE,155,3.0,4.0,78,0.00,,,0.02,Wunderground v.1.15,2013-08-11 12:31:00,
2013-08-11 07:36:00,85.7,77.7,30.09,SE,141,2.0,5.0,77,0.00,,,0.02,Wunderground v.1.15,2013-08-11 12:36:00,
2013-08-11 07:42:00,86.0,77.5,30.09,SE,145,4.0,5.0,76,0.00,,,0.02,Wunderground v.1.15,2013-08-11 12:42:00,
2013-08-11 07:47:00,86.2,78.1,30.09,SE,124,1.0,5.0,77,0.00,,,0.02,Wunderground v.1.15,2013-08-11 12:47:00,
2013-08-11 07:52:00,86.5,78.0,30.09,SSE,163,4.0,5.0,76,0.00,,,0.02,Wunderground v.1.15,2013-08-11 12:52:00,
2013-08-11 07:57:00,86.7,78.2,30.09,SE,131,3.0,5.0,76,0.00,,,0.02,Wunderground v.1.15,2013-08-11 12:57:00,
2013-08-11 08:03:00,87.0,78.1,30.09,ESE,112,2.0,4.0,75,0.00,,,0.02,Wunderground v.1.15,2013-08-11 13:03:00,
2013-08-11 08:08:00,87.2,78.7,30.09,SE,143,1.0,4.0,76,0.00,,,0.02,Wunderground v.1.15,2013-08-11 13:08:00,
2013-08-11 08:13:00,87.1,78.2,30.09,SSE,163,3.0,6.0,75,0.00,,,0.02,Wunderground v.1.15,2013-08-11 13:13:00,
2013-08-11 08:18:00,87.1,78.2,30.09,SE,139,3.0,6.0,75,0.00,,,0.02,Wunderground v.1.15,2013-08-11 13:18:00,
2013-08-11 08:23:00,87.0,78.1,30.08,SSE,153,2.0,4.0,75,0.00,,,0.02,Wunderground v.1.15,2013-08-11 13:23:00,
2013-08-11 08:28:00,86.8,78.3,30.09,SE,132,1.0,6.0,76,0.00,,,0.02,Wunderground v.1.15,2013-08-11 13:28:00,
2013-08-11 08:33:00,86.8,78.3,30.09,SSE,150,2.0,5.0,76,0.00,,,0.02,Wunderground v.1.15,2013-08-11 13:33:00,
2013-08-11 08:38:00,87.0,78.1,30.09,ESE,117,4.0,5.0,75,0.00,,,0.02,Wunderground v.1.15,2013-08-11 13:38:00,
2013-08-11 08:43:00,87.2,77.9,30.09,SE,139,3.0,7.0,74,0.00,,,0.02,Wunderground v.1.15,2013-08-11 13:43:00,
2013-08-11 08:48:00,87.3,77.6,30.09,South,176,6.0,7.0,73,0.00,,,0.02,Wunderground v.1.15,2013-08-11 13:48:00,
2013-08-11 08:54:00,87.4,78.1,30.09,SSE,148,4.0,9.0,74,0.00,,,0.02,Wunderground v.1.15,2013-08-11 13:54:00,
2013-08-11 08:59:00,87.2,77.9,30.09,SSE,164,5.0,9.0,74,0.00,,,0.02,Wunderground v.1.15,2013-08-11 13:59:00,
2013-08-11 09:04:00,87.1,77.8,30.09,SSE,160,7.0,7.0,74,0.00,,,0.02,Wunderground v.1.15,2013-08-11 14:04:00,
2013-08-11 09:09:00,87.2,78.3,30.09,ESE,122,3.0,7.0,75,0.00,,,0.02,Wunderground v.1.15,2013-08-11 14:09:00,
2013-08-11 09:14:00,87.5,78.6,30.09,East,99,3.0,7.0,75,0.00,,,0.02,Wunderground v.1.15,2013-08-11 14:14:00,
2013-08-11 09:20:00,87.5,78.2,30.09,SSE,166,4.0,4.0,74,0.00,,,0.02,Wunderground v.1.15,2013-08-11 14:20:00,
2013-08-11 09:25:00,87.8,78.5,30.10,ESE,105,4.0,7.0,74,0.00,,,0.02,Wunderground v.1.15,2013-08-11 14:25:00,
2013-08-11 09:30:00,87.9,79.0,30.10,SE,126,3.0,4.0,75,0.00,,,0.02,Wunderground v.1.15,2013-08-11 14:30:00,
2013-08-11 09:36:00,88.1,78.8,30.10,SSE,154,3.0,5.0,74,0.00,,,0.02,Wunderground v.1.15,2013-08-11 14:36:00,
2013-08-11 09:41:00,87.6,77.5,30.10,SE,126,4.0,4.0,72,0.00,,,0.02,Wunderground v.1.15,2013-08-11 14:41:00,
2013-08-11 09:46:00,87.1,77.8,30.09,ESE,102,3.0,4.0,74,0.00,,,0.02,Wunderground v.1.15,2013-08-11 14:46:00,
2013-08-11 09:51:00,86.8,78.7,30.09,ESE,122,7.0,8.0,77,0.00,,,0.02,Wunderground v.1.15,2013-08-11 14:51:00,
2013-08-11 09:56:00,86.6,78.9,30.09,ESE,120,5.0,8.0,78,0.00,,,0.02,Wunderground v.1.15,2013-08-11 14:56:00,
2013-08-11 10:01:00,86.6,78.9,30.09,ESE,114,8.0,12.0,78,0.00,,,0.02,Wunderground v.1.15,2013-08-11 15:01:00,
2013-08-11 10:07:00,87.4,78.9,30.10,ESE,121,5.0,12.0,76,0.00,,,0.02,Wunderground v.1.15,2013-08-11 15:07:00,
2013-08-11 10:12:00,87.5,79.4,30.10,East,89,4.0,10.0,77,0.00,,,0.02,Wunderground v.1.15,2013-08-11 15:12:00,
2013-08-11 10:17:00,87.6,79.1,30.10,SSW,201,4.0,10.0,76,0.00,,,0.02,Wunderground v.1.15,2013-08-11 15:17:00,
2013-08-11 10:23:00,87.9,79.0,30.10,SE,143,4.0,7.0,75,0.00,,,0.02,Wunderground v.1.15,2013-08-11 15:23:00,
2013-08-11 10:28:00,88.3,79.0,30.10,ESE,117,3.0,7.0,74,0.00,,,0.02,Wunderground v.1.15,2013-08-11 15:28:00,
2013-08-11 10:33:00,88.9,79.1,30.10,ESE,113,7.0,7.0,73,0.00,,,0.02,Wunderground v.1.15,2013-08-11 15:33:00,
2013-08-11 10:38:00,88.9,78.7,30.10,South,172,7.0,8.0,72,0.00,,,0.02,Wunderground v.1.15,2013-08-11 15:38:00,
2013-08-11 10:43:00,88.6,78.0,30.10,SSE,155,4.0,10.0,71,0.00,,,0.02,Wunderground v.1.15,2013-08-11 15:43:00,
2013-08-11 10:48:00,88.5,78.7,30.10,SSE,165,7.0,10.0,73,0.00,,,0.02,Wunderground v.1.15,2013-08-11 15:48:00,
2013-08-11 10:54:00,88.2,78.0,30.10,SE,134,4.0,8.0,72,0.00,,,0.02,Wunderground v.1.15,2013-08-11 15:54:00,
2013-08-11 10:59:00,88.4,79.1,30.10,South,179,5.0,8.0,74,0.00,,,0.02,Wunderground v.1.15,2013-08-11 15:59:00,
2013-08-11 11:04:00,88.8,78.2,30.10,SSE,155,8.0,9.0,71,0.00,,,0.02,Wunderground v.1.15,2013-08-11 16:04:00,
2013-08-11 11:09:00,88.6,79.2,30.10,SSW,212,1.0,9.0,74,0.00,,,0.02,Wunderground v.1.15,2013-08-11 16:09:00,
2013-08-11 11:14:00,88.3,79.0,30.10,West,259,1.0,5.0,74,0.00,,,0.02,Wunderground v.1.15,2013-08-11 16:14:00,
2013-08-11 11:19:00,87.8,78.5,30.10,SW,226,2.0,5.0,74,0.00,,,0.02,Wunderground v.1.15,2013-08-11 16:19:00,
2013-08-11 11:25:00,87.3,78.4,30.10,SE,128,3.0,6.0,75,0.00,,,0.02,Wunderground v.1.15,2013-08-11 16:25:00,
2013-08-11 11:30:00,87.3,78.0,30.10,SSE,163,8.0,8.0,74,0.00,,,0.02,Wunderground v.1.15,2013-08-11 16:30:00,
2013-08-11 11:35:00,87.7,77.5,30.09,SSE,155,5.0,9.0,72,0.00,,,0.02,Wunderground v.1.15,2013-08-11 16:35:00,
2013-08-11 11:40:00,88.2,78.9,30.09,SE,136,4.0,5.0,74,0.00,,,0.02,Wunderground v.1.15,2013-08-11 16:40:00,
2013-08-11 11:45:00,88.5,79.1,30.09,SSE,152,3.0,8.0,74,0.00,,,0.02,Wunderground v.1.15,2013-08-11 16:45:00,
2013-08-11 11:51:00,89.0,79.6,30.09,SSE,166,5.0,5.0,74,0.00,,,0.02,Wunderground v.1.15,2013-08-11 16:51:00,
2013-08-11 11:56:00,88.9,79.1,30.09,ESE,122,4.0,8.0,73,0.00,,,0.02,Wunderground v.1.15,2013-08-11 16:56:00,
2013-08-11 12:01:00,89.1,78.9,30.09,South,183,6.0,6.0,72,0.00,,,0.02,Wunderground v.1.15,2013-08-11 17:01:00,
2013-08-11 12:06:00,88.8,79.4,30.08,SE,132,4.0,8.0,74,0.00,,,0.02,Wunderground v.1.15,2013-08-11 17:06:00,
2013-08-11 12:11:00,88.4,79.5,30.08,East,101,5.0,9.0,75,0.00,,,0.02,Wunderground v.1.15,2013-08-11 17:11:00,
2013-08-11 12:16:00,88.8,79.4,30.08,SE,139,5.0,9.0,74,0.00,,,0.02,Wunderground v.1.15,2013-08-11 17:16:00,
2013-08-11 12:21:00,89.0,79.2,30.09,SE,127,4.0,6.0,73,0.00,,,0.02,Wunderground v.1.15,2013-08-11 17:21:00,
2013-08-11 12:27:00,88.9,79.5,30.09,ESE,103,7.0,7.0,74,0.00,,,0.02,Wunderground v.1.15,2013-08-11 17:27:00,
2013-08-11 12:32:00,89.1,79.3,30.09,East,94,4.0,7.0,73,0.00,,,0.02,Wunderground v.1.15,2013-08-11 17:32:00,
2013-08-11 12:37:00,89.2,79.4,30.09,South,188,6.0,9.0,73,0.00,,,0.02,Wunderground v.1.15,2013-08-11 17:37:00,
2013-08-11 12:42:00,89.5,79.7,30.09,SE,146,5.0,5.0,73,0.00,,,0.02,Wunderground v.1.15,2013-08-11 17:42:00,
2013-08-11 12:47:00,89.5,79.7,30.09,ESE,105,6.0,9.0,73,0.00,,,0.02,Wunderground v.1.15,2013-08-11 17:47:00,
2013-08-11 12:52:00,89.4,80.0,30.09,SSE,152,3.0,7.0,74,0.00,,,0.02,Wunderground v.1.15,2013-08-11 17:52:00,
2013-08-11 12:57:00,90.0,80.2,30.09,SE,141,5.0,8.0,73,0.00,,,0.02,Wunderground v.1.15,2013-08-11 17:57:00,
2013-08-11 13:03:00,90.3,80.0,30.09,SSE,158,4.0,7.0,72,0.00,,,0.02,Wunderground v.1.15,2013-08-11 18:03:00,
2013-08-11 13:08:00,88.7,78.9,30.09,SSE,150,3.0,8.0,73,0.00,,,0.02,Wunderground v.1.15,2013-08-11 18:08:00,
2013-08-11 13:13:00,88.1,79.2,30.08,ESE,114,4.0,6.0,75,0.00,,,0.02,Wunderground v.1.15,2013-08-11 18:13:00,
2013-08-11 13:18:00,88.4,78.6,30.08,SSE,148,7.0,8.0,73,0.00,,,0.02,Wunderground v.1.15,2013-08-11 18:18:00,
2013-08-11 13:23:00,89.2,79.0,30.08,ESE,114,3.0,7.0,72,0.00,,,0.02,Wunderground v.1.15,2013-08-11 18:23:00,
2013-08-11 13:29:00,89.5,78.8,30.08,SE,136,5.0,7.0,71,0.00,,,0.02,Wunderground v.1.15,2013-08-11 18:29:00,
2013-08-11 13:34:00,89.7,78.6,30.08,SSE,153,4.0,7.0,70,0.00,,,0.02,Wunderground v.1.15,2013-08-11 18:34:00,
2013-08-11 13:39:00,89.9,77.9,30.08,ESE,118,4.0,9.0,68,0.00,,,0.02,Wunderground v.1.15,2013-08-11 18:39:00,
2013-08-11 13:44:00,89.9,78.4,30.08,SSE,150,7.0,7.0,69,0.00,,,0.02,Wunderground v.1.15,2013-08-11 18:44:00,
2013-08-11 13:49:00,89.8,78.3,30.08,SE,129,3.0,9.0,69,0.00,,,0.02,Wunderground v.1.15,2013-08-11 18:49:00,
2013-08-11 13:54:00,90.0,78.5,30.08,SE,130,3.0,6.0,69,0.00,,,0.02,Wunderground v.1.15,2013-08-11 18:54:00,
2013-08-11 13:59:00,90.2,78.2,30.08,SSE,166,4.0,8.0,68,0.00,,,0.02,Wunderground v.1.15,2013-08-11 18:59:00,
2013-08-11 14:04:00,89.8,78.3,30.08,SE,141,4.0,7.0,69,0.00,,,0.02,Wunderground v.1.15,2013-08-11 19:04:00,
2013-08-11 14:09:00,90.0,78.9,30.07,ESE,117,4.0,7.0,70,0.00,,,0.02,Wunderground v.1.15,2013-08-11 19:09:00,
2013-08-11 14:15:00,89.8,78.7,30.07,South,179,4.0,8.0,70,0.00,,,0.02,Wunderground v.1.15,2013-08-11 19:15:00,
2013-08-11 14:20:00,90.0,78.5,30.08,SSE,168,2.0,5.0,69,0.00,,,0.02,Wunderground v.1.15,2013-08-11 19:20:00,
2013-08-11 14:25:00,90.3,79.2,30.07,SE,133,5.0,8.0,70,0.00,,,0.02,Wunderground v.1.15,2013-08-11 19:25:00,
2013-08-11 14:30:00,90.0,79.3,30.07,SE,125,3.0,4.0,71,0.00,,,0.02,Wunderground v.1.15,2013-08-11 19:30:00,
2013-08-11 14:35:00,90.1,79.4,30.07,SSE,155,3.0,7.0,71,0.00,,,0.02,Wunderground v.1.15,2013-08-11 19:35:00,
2013-08-11 14:40:00,89.9,78.8,30.07,SSE,160,6.0,6.0,70,0.00,,,0.02,Wunderground v.1.15,2013-08-11 19:40:00,
2013-08-11 14:45:00,89.7,78.6,30.07,SE,138,3.0,7.0,70,0.00,,,0.02,Wunderground v.1.15,2013-08-11 19:45:00,
2013-08-11 14:51:00,89.9,78.8,30.07,SSE,156,6.0,10.0,70,0.00,,,0.02,Wunderground v.1.15,2013-08-11 19:51:00,
2013-08-11 14:56:00,89.8,78.3,30.06,SE,138,4.0,10.0,69,0.00,,,0.02,Wunderground v.1.15,2013-08-11 19:56:00,
2013-08-11 15:01:00,89.9,78.8,30.06,SE,130,5.0,7.0,70,0.00,,,0.02,Wunderground v.1.15,2013-08-11 20:01:00,
2013-08-11 15:06:00,89.5,78.4,30.05,SE,136,4.0,8.0,70,0.00,,,0.02,Wunderground v.1.15,2013-08-11 20:06:00,
2013-08-11 15:11:00,89.7,78.2,30.05,SSE,150,3.0,6.0,69,0.00,,,0.02,Wunderground v.1.15,2013-08-11 20:11:00,
2013-08-11 15:16:00,90.1,79.0,30.05,SSE,148,7.0,7.0,70,0.00,,,0.02,Wunderground v.1.15,2013-08-11 20:16:00,
2013-08-11 15:22:00,90.1,79.0,30.05,SSE,166,7.0,8.0,70,0.00,,,0.02,Wunderground v.1.15,2013-08-11 20:22:00,
2013-08-11 15:27:00,90.2,78.6,30.05,SSE,155,3.0,8.0,69,0.00,,,0.02,Wunderground v.1.15,2013-08-11 20:27:00,
2013-08-11 15:32:00,90.2,79.1,30.05,SSE,148,6.0,7.0,70,0.00,,,0.02,Wunderground v.1.15,2013-08-11 20:32:00,
2013-08-11 15:37:00,90.1,79.4,30.05,ESE,120,5.0,7.0,71,0.00,,,0.02,Wunderground v.1.15,2013-08-11 20:37:00,
2013-08-11 15:42:00,90.0,78.5,30.05,South,172,5.0,9.0,69,0.00,,,0.02,Wunderground v.1.15,2013-08-11 20:42:00,
2013-08-11 15:48:00,90.0,78.9,30.05,South,186,5.0,9.0,70,0.00,,,0.02,Wunderground v.1.15,2013-08-11 20:48:00,
2013-08-11 15:53:00,89.9,78.8,30.05,SSE,163,5.0,11.0,70,0.00,,,0.02,Wunderground v.1.15,2013-08-11 20:53:00,
2013-08-11 15:59:00,89.8,79.1,30.05,ESE,103,6.0,11.0,71,0.00,,,0.02,Wunderground v.1.15,2013-08-11 20:59:00,
2013-08-11 16:04:00,89.6,78.1,30.05,South,178,8.0,10.0,69,0.00,,,0.02,Wunderground v.1.15,2013-08-11 21:04:00,
2013-08-11 16:09:00,89.6,78.9,30.05,SSE,163,9.0,10.0,71,0.00,,,0.02,Wunderground v.1.15,2013-08-11 21:09:00,
2013-08-11 16:15:00,90.0,78.5,30.05,SSE,164,7.0,8.0,69,0.00,,,0.02,Wunderground v.1.15,2013-08-11 21:15:00,
2013-08-11 16:20:00,89.8,78.3,30.05,South,178,6.0,9.0,69,0.00,,,0.02,Wunderground v.1.15,2013-08-11 21:20:00,
2013-08-11 16:25:00,89.7,78.2,30.05,SSW,195,5.0,8.0,69,0.00,,,0.02,Wunderground v.1.15,2013-08-11 21:25:00,
2013-08-11 16:31:00,89.6,78.5,30.05,SE,134,7.0,8.0,70,0.00,,,0.02,Wunderground v.1.15,2013-08-11 21:31:00,
2013-08-11 16:36:00,89.4,78.8,30.06,ESE,120,4.0,9.0,71,0.00,,,0.02,Wunderground v.1.15,2013-08-11 21:36:00,
2013-08-11 16:41:00,89.6,78.1,30.06,SE,141,3.0,9.0,69,0.00,,,0.02,Wunderground v.1.15,2013-08-11 21:41:00,
2013-08-11 16:46:00,89.2,77.7,30.05,South,178,6.0,9.0,69,0.00,,,0.02,Wunderground v.1.15,2013-08-11 21:46:00,
2013-08-11 16:51:00,88.8,78.6,30.05,SE,139,4.0,6.0,72,0.00,,,0.02,Wunderground v.1.15,2013-08-11 21:51:00,
2013-08-11 16:57:00,88.6,78.0,30.05,East,98,3.0,9.0,71,0.00,,,0.02,Wunderground v.1.15,2013-08-11 21:57:00,
2013-08-11 17:02:00,88.4,78.2,30.05,ESE,120,3.0,6.0,72,0.00,,,0.02,Wunderground v.1.15,2013-08-11 22:02:00,
2013-08-11 17:07:00,88.2,77.6,30.04,South,174,6.0,9.0,71,0.00,,,0.02,Wunderground v.1.15,2013-08-11 22:07:00,
2013-08-11 17:12:00,88.3,78.5,30.04,SSE,166,4.0,6.0,73,0.00,,,0.02,Wunderground v.1.15,2013-08-11 22:12:00,
2013-08-11 17:17:00,88.4,78.6,30.04,ESE,113,3.0,7.0,73,0.00,,,0.02,Wunderground v.1.15,2013-08-11 22:17:00,
2013-08-11 17:22:00,88.1,79.6,30.04,SE,130,3.0,6.0,76,0.00,,,0.02,Wunderground v.1.15,2013-08-11 22:22:00,
2013-08-11 17:28:00,87.9,79.4,30.04,ESE,108,4.0,9.0,76,0.00,,,0.02,Wunderground v.1.15,2013-08-11 22:28:00,
2013-08-11 17:33:00,87.4,79.3,30.04,South,170,4.0,9.0,77,0.00,,,0.02,Wunderground v.1.15,2013-08-11 22:33:00,
2013-08-11 17:38:00,87.5,79.4,30.04,SE,135,6.0,9.0,77,0.00,,,0.02,Wunderground v.1.15,2013-08-11 22:38:00,
2013-08-11 17:44:00,87.1,79.0,30.04,SE,146,5.0,6.0,77,0.00,,,0.02,Wunderground v.1.15,2013-08-11 22:44:00,
2013-08-11 17:49:00,87.1,79.4,30.04,ESE,104,4.0,7.0,78,0.00,,,0.02,Wunderground v.1.15,2013-08-11 22:49:00,
2013-08-11 17:54:00,86.8,78.7,30.04,SSE,148,4.0,6.0,77,0.00,,,0.02,Wunderground v.1.15,2013-08-11 22:54:00,
2013-08-11 17:59:00,86.9,78.4,30.04,ESE,114,4.0,6.0,76,0.00,,,0.02,Wunderground v.1.15,2013-08-11 22:59:00,
2013-08-11 18:05:00,87.0,78.9,30.05,SSE,165,8.0,8.0,77,0.00,,,0.02,Wunderground v.1.15,2013-08-11 23:05:00,
2013-08-11 18:11:00,86.8,79.1,30.05,SSE,167,3.0,5.0,78,0.00,,,0.02,Wunderground v.1.15,2013-08-11 23:11:00,
2013-08-11 18:16:00,86.6,78.9,30.05,SE,126,4.0,9.0,78,0.00,,,0.02,Wunderground v.1.15,2013-08-11 23:16:00,
2013-08-11 18:21:00,86.3,78.6,30.05,SE,139,3.0,10.0,78,0.00,,,0.02,Wunderground v.1.15,2013-08-11 23:21:00,
2013-08-11 18:26:00,86.3,79.4,30.06,SE,138,4.0,10.0,80,0.00,,,0.02,Wunderground v.1.15,2013-08-11 23:26:00,
2013-08-11 18:31:00,86.1,79.6,30.06,SSE,163,4.0,6.0,81,0.00,,,0.02,Wunderground v.1.15,2013-08-11 23:31:00,
2013-08-11 18:36:00,85.7,79.2,30.06,ESE,115,3.0,11.0,81,0.00,,,0.02,Wunderground v.1.15,2013-08-11 23:36:00,
2013-08-11 18:41:00,85.4,79.3,30.05,SE,144,4.0,7.0,82,0.00,,,0.02,Wunderground v.1.15,2013-08-11 23:41:00,
2013-08-11 18:46:00,85.3,79.5,30.05,East,100,10.0,10.0,83,0.00,,,0.02,Wunderground v.1.15,2013-08-11 23:46:00,
2013-08-11 18:51:00,85.1,79.0,30.06,SSE,160,5.0,10.0,82,0.00,,,0.02,Wunderground v.1.15,2013-08-11 23:51:00,
2013-08-11 18:56:00,85.0,79.3,30.06,SE,146,5.0,10.0,83,0.00,,,0.02,Wunderground v.1.15,2013-08-11 23:56:00,
2013-08-11 19:01:00,85.0,78.9,30.05,SE,125,8.0,12.0,82,0.00,,,0.02,Wunderground v.1.15,2013-08-12 00:01:00,
2013-08-11 19:07:00,85.0,78.9,30.05,SE,141,6.0,12.0,82,0.00,,,0.02,Wunderground v.1.15,2013-08-12 00:07:00,
2013-08-11 19:12:00,84.9,79.2,30.05,SE,141,4.0,9.0,83,0.00,,,0.02,Wunderground v.1.15,2013-08-12 00:12:00,
2013-08-11 19:17:00,84.8,78.3,30.05,ESE,122,3.0,9.0,81,0.00,,,0.02,Wunderground v.1.15,2013-08-12 00:17:00,
2013-08-11 19:22:00,84.9,78.0,30.05,SSE,159,8.0,9.0,80,0.00,,,0.02,Wunderground v.1.15,2013-08-12 00:22:00,
2013-08-11 19:27:00,85.0,78.5,30.05,ESE,115,3.0,10.0,81,0.00,,,0.02,Wunderground v.1.15,2013-08-12 00:27:00,
2013-08-11 19:32:00,85.0,78.1,30.05,East,94,7.0,7.0,80,0.00,,,0.02,Wunderground v.1.15,2013-08-12 00:32:00,
2013-08-11 19:37:00,85.0,78.1,30.05,SSE,153,4.0,8.0,80,0.00,,,0.02,Wunderground v.1.15,2013-08-12 00:37:00,
2013-08-11 19:42:00,85.0,78.1,30.06,SE,136,4.0,9.0,80,0.00,,,0.02,Wunderground v.1.15,2013-08-12 00:42:00,
2013-08-11 19:47:00,85.0,78.1,30.06,SSE,152,9.0,9.0,80,0.00,,,0.02,Wunderground v.1.15,2013-08-12 00:47:00,
2013-08-11 19:52:00,84.9,78.0,30.06,SSE,148,7.0,11.0,80,0.00,,,0.02,Wunderground v.1.15,2013-08-12 00:52:00,
2013-08-11 19:58:00,84.8,78.3,30.07,SSW,194,8.0,11.0,81,0.00,,,0.02,Wunderground v.1.15,2013-08-12 00:58:00,
2013-08-11 20:03:00,84.9,78.4,30.07,SE,138,5.0,11.0,81,0.00,,,0.02,Wunderground v.1.15,2013-08-12 01:03:00,
2013-08-11 20:08:00,84.9,78.0,30.07,SSE,163,7.0,11.0,80,0.00,,,0.02,Wunderground v.1.15,2013-08-12 01:08:00,
2013-08-11 20:13:00,85.0,78.1,30.06,SSE,150,4.0,7.0,80,0.00,,,0.02,Wunderground v.1.15,2013-08-12 01:13:00,
2013-08-11 20:18:00,84.9,77.7,30.06,SE,142,5.0,8.0,79,0.00,,,0.02,Wunderground v.1.15,2013-08-12 01:18:00,
2013-08-11 20:23:00,84.9,77.7,30.06,SE,144,5.0,8.0,79,0.00,,,0.02,Wunderground v.1.15,2013-08-12 01:23:00,
2013-08-11 20:28:00,84.9,77.3,30.07,SSE,161,5.0,8.0,78,0.00,,,0.02,Wunderground v.1.15,2013-08-12 01:28:00,
2013-08-11 20:33:00,84.9,77.3,30.07,SE,138,1.0,6.0,78,0.00,,,0.02,Wunderground v.1.15,2013-08-12 01:33:00,
2013-08-11 20:39:00,84.8,77.2,30.07,SE,130,1.0,6.0,78,0.00,,,0.02,Wunderground v.1.15,2013-08-12 01:39:00,
2013-08-11 20:45:00,84.8,77.6,30.08,SE,142,1.0,4.0,79,0.00,,,0.02,Wunderground v.1.15,2013-08-12 01:45:00,
2013-08-11 20:50:00,84.8,77.6,30.08,SSE,166,2.0,3.0,79,0.00,,,0.02,Wunderground v.1.15,2013-08-12 01:50:00,
2013-08-11 20:55:00,84.8,77.2,30.08,South,174,3.0,6.0,78,0.00,,,0.02,Wunderground v.1.15,2013-08-12 01:55:00,
2013-08-11 21:00:00,85.0,77.0,30.08,SE,138,3.0,4.0,77,0.00,,,0.02,Wunderground v.1.15,2013-08-12 02:00:00,
2013-08-11 21:05:00,85.0,77.4,30.09,SE,142,2.0,6.0,78,0.00,,,0.02,Wunderground v.1.15,2013-08-12 02:05:00,
2013-08-11 21:10:00,85.0,77.8,30.09,SSW,203,3.0,3.0,79,0.00,,,0.02,Wunderground v.1.15,2013-08-12 02:10:00,
2013-08-11 21:15:00,85.1,77.5,30.09,SSW,208,4.0,7.0,78,0.00,,,0.02,Wunderground v.1.15,2013-08-12 02:15:00,
2013-08-11 21:20:00,85.1,78.2,30.09,SSE,149,3.0,7.0,80,0.00,,,0.02,Wunderground v.1.15,2013-08-12 02:20:00,
2013-08-11 21:25:00,85.1,78.2,30.09,SE,136,2.0,7.0,80,0.00,,,0.02,Wunderground v.1.15,2013-08-12 02:25:00,
2013-08-11 21:31:00,85.1,77.5,30.09,SSE,153,4.0,5.0,78,0.00,,,0.02,Wunderground v.1.15,2013-08-12 02:31:00,
2013-08-11 21:36:00,85.1,77.5,30.09,SSE,150,7.0,8.0,78,0.00,,,0.02,Wunderground v.1.15,2013-08-12 02:36:00,
2013-08-11 21:41:00,85.2,77.9,30.09,SE,141,4.0,7.0,79,0.00,,,0.02,Wunderground v.1.15,2013-08-12 02:41:00,
2013-08-11 21:46:00,85.2,77.6,30.09,SSE,150,5.0,8.0,78,0.00,,,0.02,Wunderground v.1.15,2013-08-12 02:46:00,
2013-08-11 21:51:00,85.3,78.0,30.09,South,181,5.0,7.0,79,0.00,,,0.02,Wunderground v.1.15,2013-08-12 02:51:00,
2013-08-11 21:56:00,85.3,77.3,30.09,SE,141,5.0,9.0,77,0.00,,,0.02,Wunderground v.1.15,2013-08-12 02:56:00,
2013-08-11 22:01:00,85.4,77.8,30.09,SSW,195,6.0,9.0,78,0.00,,,0.02,Wunderground v.1.15,2013-08-12 03:01:00,
2013-08-11 22:07:00,85.3,77.7,30.08,SSE,153,4.0,9.0,78,0.00,,,0.02,Wunderground v.1.15,2013-08-12 03:07:00,
2013-08-11 22:11:00,85.4,78.9,30.08,SSE,152,5.0,8.0,81,0.00,,,0.02,Wunderground v.1.15,2013-08-12 03:11:00,
2013-08-11 22:17:00,85.0,79.6,30.08,SE,127,8.0,11.0,84,0.00,,,0.03,Wunderground v.1.15,2013-08-12 03:17:00,
2013-08-11 22:22:00,84.0,78.6,30.09,SSE,155,3.0,7.0,84,0.15,,,0.05,Wunderground v.1.15,2013-08-12 03:22:00,
2013-08-11 22:27:00,83.1,77.8,30.08,ESE,113,2.0,7.0,84,0.10,,,0.05,Wunderground v.1.15,2013-08-12 03:27:00,
2013-08-11 22:32:00,82.6,78.0,30.09,ESE,113,1.0,2.0,86,0.05,,,0.05,Wunderground v.1.15,2013-08-12 03:32:00,
2013-08-11 22:37:00,82.5,77.9,30.09,South,191,12.0,14.0,86,0.04,,,0.05,Wunderground v.1.15,2013-08-12 03:37:00,
2013-08-11 22:42:00,81.7,77.5,30.09,SSW,198,9.0,14.0,87,1.86,,,0.10,Wunderground v.1.15,2013-08-12 03:42:00,
2013-08-11 22:47:00,80.5,77.0,30.09,SW,233,1.0,14.0,89,0.72,,,0.22,Wunderground v.1.15,2013-08-12 03:47:00,
2013-08-11 22:52:00,79.9,77.0,30.09,SSW,207,3.0,6.0,91,0.32,,,0.26,Wunderground v.1.15,2013-08-12 03:52:00,
2013-08-11 22:59:00,80.9,78.4,30.09,SSE,158,5.0,7.0,92,0.07,,,0.26,Wunderground v.1.15,2013-08-12 03:59:00,
2013-08-11 23:01:00,81.1,78.6,30.08,SE,142,4.0,4.0,92,0.06,,,0.26,Wunderground v.1.15,2013-08-12 04:01:00,
2013-08-11 23:04:00,81.4,78.5,30.09,SSE,148,4.0,5.0,91,0.04,,,0.26,Wunderground v.1.15,2013-08-12 04:04:00,
2013-08-11 23:09:00,81.8,79.2,30.09,SE,134,1.0,5.0,92,0.00,,,0.26,Wunderground v.1.15,2013-08-12 04:09:00,
2013-08-11 23:14:00,82.0,79.4,30.09,SSE,150,0.0,3.0,92,0.00,,,0.26,Wunderground v.1.15,2013-08-12 04:14:00,
2013-08-11 23:19:00,81.7,79.1,30.09,SW,226,0.0,3.0,92,0.00,,,0.26,Wunderground v.1.15,2013-08-12 04:19:00,
2013-08-11 23:24:00,81.6,78.7,30.09,SW,224,1.0,2.0,91,0.00,,,0.26,Wunderground v.1.15,2013-08-12 04:24:00,
2013-08-11 23:29:00,81.4,78.5,30.09,WSW,255,0.0,2.0,91,0.00,,,0.26,Wunderground v.1.15,2013-08-12 04:29:00,
2013-08-11 23:34:00,81.2,78.7,30.09,West,273,1.0,2.0,92,0.00,,,0.26,Wunderground v.1.15,2013-08-12 04:34:00,
2013-08-11 23:39:00,81.2,79.0,30.09,SE,146,2.0,4.0,93,0.00,,,0.26,Wunderground v.1.15,2013-08-12 04:39:00,
2013-08-11 23:44:00,81.7,78.5,30.09,SSE,163,4.0,9.0,90,0.00,,,0.26,Wunderground v.1.15,2013-08-12 04:44:00,
2013-08-11 23:49:00,82.6,78.3,30.09,South,178,3.0,9.0,87,0.00,,,0.26,Wunderground v.1.15,2013-08-12 04:49:00,
2013-08-11 23:54:00,83.2,78.6,30.08,South,188,6.0,9.0,86,0.00,,,0.00,Wunderground v.1.15,2013-08-12 04:54:00,
2013-08-11 23:59:00,83.4,78.8,30.08,SSE,165,5.0,10.0,86,0.00,,,0.00,Wunderground v.1.15,2013-08-12 04:59:00,